createdAt,value
2023-01-20T00:01:07.125Z,13.67
2023-01-20T00:03:34.902Z,12.63
2023-01-20T00:06:02.837Z,11.77
2023-01-20T00:08:30.630Z,12.77
2023-01-20T00:10:58.907Z,10.13
2023-01-20T00:13:28.068Z,10.83
2023-01-20T00:15:55.830Z,14.83
2023-01-20T00:18:23.625Z,13.40
2023-01-20T00:20:51.383Z,11.53
2023-01-20T00:23:19.130Z,14.87
2023-01-20T00:25:46.850Z,10.83
2023-01-20T00:28:14.668Z,10.87
2023-01-20T00:30:43.775Z,12.60
2023-01-20T00:33:11.585Z,13.73
2023-01-20T00:35:39.628Z,10.63
2023-01-20T00:38:07.373Z,14.00
2023-01-20T00:40:35.035Z,11.67
2023-01-20T00:43:02.776Z,14.03
2023-01-20T00:45:30.529Z,12.23
2023-01-20T00:47:59.600Z,16.03
2023-01-20T00:50:27.338Z,10.90
2023-01-20T00:52:56.348Z,11.90
2023-01-20T00:55:24.213Z,11.10
2023-01-20T00:57:52.000Z,12.40
2023-01-20T01:00:20.369Z,12.03
2023-01-20T01:02:48.111Z,15.20
2023-01-20T01:05:17.374Z,12.97
2023-01-20T01:07:45.134Z,12.83
2023-01-20T01:10:12.905Z,13.83
2023-01-20T01:12:40.668Z,12.97
2023-01-20T01:15:09.456Z,13.87
2023-01-20T01:17:37.226Z,11.67
2023-01-20T01:20:05.409Z,15.37
2023-01-20T01:22:34.473Z,12.97
2023-01-20T01:25:02.159Z,14.53
2023-01-20T01:27:30.294Z,14.70
2023-01-20T01:29:58.007Z,12.37
2023-01-20T01:32:25.702Z,13.90
2023-01-20T01:34:53.433Z,13.90
2023-01-20T01:37:21.193Z,11.60
2023-01-20T01:39:50.244Z,14.23
2023-01-20T01:42:20.465Z,15.70
2023-01-20T01:45:18.671Z,11.80
2023-01-20T01:47:50.363Z,14.13
2023-01-20T01:50:21.407Z,12.57
2023-01-20T01:52:52.231Z,13.17
2023-01-20T01:55:25.896Z,15.10
2023-01-20T01:57:54.676Z,13.63
2023-01-20T02:00:22.655Z,12.93
2023-01-20T02:02:50.662Z,14.23
2023-01-20T02:05:19.569Z,12.77
2023-01-20T02:07:49.157Z,14.70
2023-01-20T02:10:17.291Z,12.43
2023-01-20T02:12:49.571Z,15.13
2023-01-20T02:15:22.800Z,13.60
2023-01-20T02:18:08.187Z,17.07
2023-01-20T02:21:11.181Z,13.47
2023-01-20T02:24:08.565Z,16.00
2023-01-20T02:27:00.520Z,13.43
2023-01-20T02:30:03.895Z,14.70
2023-01-20T02:32:40.857Z,13.47
2023-01-20T02:35:13.037Z,16.17
2023-01-20T02:37:48.417Z,14.47
2023-01-20T02:40:27.792Z,13.00
2023-01-20T02:43:02.531Z,12.57
2023-01-20T02:45:39.596Z,14.00
2023-01-20T02:48:16.516Z,16.83
2023-01-20T02:50:53.452Z,15.07
2023-01-20T02:53:24.143Z,16.63
2023-01-20T02:55:55.539Z,16.03
2023-01-20T02:58:28.412Z,18.43
2023-01-20T03:00:59.668Z,15.17
2023-01-20T03:03:34.092Z,18.97
2023-01-20T03:06:05.074Z,15.87
2023-01-20T03:08:34.239Z,16.37
2023-01-20T03:11:07.047Z,14.80
2023-01-20T03:13:38.760Z,15.47
2023-01-20T03:16:10.070Z,17.37
2023-01-20T03:18:40.500Z,16.63
2023-01-20T03:21:09.978Z,18.13
2023-01-20T03:23:41.721Z,15.60
2023-01-20T03:26:11.250Z,16.53
2023-01-20T03:28:39.112Z,17.57
2023-01-20T03:31:15.126Z,14.77
2023-01-20T03:33:45.655Z,15.63
2023-01-20T03:36:13.885Z,18.80
2023-01-20T03:38:41.890Z,16.87
2023-01-20T03:41:19.371Z,18.33
2023-01-20T03:43:58.103Z,18.00
2023-01-20T03:46:33.403Z,16.80
2023-01-20T03:49:10.710Z,18.23
2023-01-20T03:51:50.524Z,17.57
2023-01-20T03:54:23.091Z,21.17
2023-01-20T03:56:57.355Z,19.47
2023-01-20T03:59:26.304Z,17.90
2023-01-20T04:01:55.574Z,19.70
2023-01-20T04:04:24.835Z,21.23
2023-01-20T04:06:53.860Z,22.17
2023-01-20T04:09:25.783Z,21.20
2023-01-20T04:11:53.527Z,21.27
2023-01-20T04:14:21.195Z,18.63
2023-01-20T04:16:54.314Z,18.93
2023-01-20T04:19:21.970Z,19.77
2023-01-20T04:21:56.897Z,19.03
2023-01-20T04:24:27.389Z,18.77
2023-01-20T04:26:55.056Z,22.20
2023-01-20T04:29:22.765Z,23.30
2023-01-20T04:31:50.537Z,20.23
2023-01-20T04:34:18.400Z,18.30
2023-01-20T04:36:46.121Z,20.40
2023-01-20T04:39:15.204Z,23.57
2023-01-20T04:41:42.974Z,22.30
2023-01-20T04:44:10.667Z,23.57
2023-01-20T04:46:38.411Z,22.27
2023-01-20T04:49:06.162Z,22.87
2023-01-20T04:51:34.445Z,26.17
2023-01-20T04:54:02.143Z,23.30
2023-01-20T04:56:31.239Z,23.77
2023-01-20T04:58:59.943Z,25.93
2023-01-20T05:01:27.747Z,21.23
2023-01-20T05:03:55.626Z,24.13
2023-01-20T05:06:23.309Z,21.97
2023-01-20T05:08:51.148Z,24.60
2023-01-20T05:11:19.377Z,25.10
2023-01-20T05:13:48.428Z,22.87
2023-01-20T05:16:21.810Z,25.90
2023-01-20T05:18:49.460Z,24.87
2023-01-20T05:21:17.164Z,26.47
2023-01-20T05:23:44.933Z,24.00
2023-01-20T05:26:12.675Z,25.40
2023-01-20T05:28:40.482Z,25.13
2023-01-20T05:31:09.959Z,28.70
2023-01-20T05:33:39.776Z,26.67
2023-01-20T05:36:08.182Z,26.90
2023-01-20T05:38:35.903Z,26.10
2023-01-20T05:41:04.935Z,28.80
2023-01-20T05:43:33.118Z,28.93
2023-01-20T05:46:01.300Z,29.17
2023-01-20T05:48:30.487Z,27.00
2023-01-20T05:50:58.207Z,28.43
2023-01-20T05:53:25.965Z,27.97
2023-01-20T05:56:00.479Z,27.20
2023-01-20T05:58:28.992Z,32.13
2023-01-20T06:00:56.864Z,31.80
2023-01-20T06:03:26.259Z,29.23
2023-01-20T06:06:00.898Z,30.23
2023-01-20T06:08:28.661Z,28.90
2023-01-20T06:10:56.486Z,28.57
2023-01-20T06:13:24.200Z,27.73
2023-01-20T06:15:53.719Z,30.17
2023-01-20T06:18:22.276Z,32.67
2023-01-20T06:20:50.182Z,29.10
2023-01-20T06:23:19.426Z,27.73
2023-01-20T06:25:47.081Z,26.97
2023-01-20T06:28:14.789Z,27.60
2023-01-20T06:30:43.219Z,27.93
2023-01-20T06:33:11.383Z,27.33
2023-01-20T06:35:39.175Z,26.03
2023-01-20T06:38:06.870Z,27.63
2023-01-20T06:40:35.964Z,29.20
2023-01-20T06:43:03.970Z,27.67
2023-01-20T06:45:31.819Z,30.77
2023-01-20T06:47:59.591Z,29.63
2023-01-20T06:50:27.304Z,28.40
2023-01-20T06:52:55.910Z,30.93
2023-01-20T06:55:23.820Z,30.13
2023-01-20T06:57:52.981Z,27.83
2023-01-20T07:00:21.770Z,32.07
2023-01-20T07:02:49.667Z,31.37
2023-01-20T07:05:17.586Z,28.77
2023-01-20T07:07:45.824Z,31.10
2023-01-20T07:10:14.077Z,30.63
2023-01-20T07:12:41.809Z,31.63
2023-01-20T07:15:12.232Z,31.47
2023-01-20T07:17:40.005Z,29.03
2023-01-20T07:20:09.212Z,38.03
2023-01-20T07:22:36.935Z,31.93
2023-01-20T07:25:04.861Z,30.30
2023-01-20T07:27:32.635Z,28.90
2023-01-20T07:30:00.277Z,32.13
2023-01-20T07:32:32.143Z,30.60
2023-01-20T07:34:59.906Z,34.90
2023-01-20T07:37:27.675Z,33.23
2023-01-20T07:39:55.338Z,32.57
2023-01-20T07:42:23.139Z,29.30
2023-01-20T07:44:50.938Z,32.77
2023-01-20T07:47:18.725Z,28.97
2023-01-20T07:49:47.793Z,37.03
2023-01-20T07:52:15.552Z,34.67
2023-01-20T07:54:43.343Z,33.40
2023-01-20T07:57:11.201Z,37.73
2023-01-20T07:59:38.991Z,35.60
2023-01-20T08:02:06.949Z,33.50
2023-01-20T08:04:35.157Z,34.37
2023-01-20T08:07:04.715Z,37.70
2023-01-20T08:09:32.460Z,36.97
2023-01-20T08:12:01.797Z,37.63
2023-01-20T08:14:29.561Z,35.60
2023-01-20T08:16:57.370Z,37.97
2023-01-20T08:19:25.380Z,34.17
2023-01-20T08:21:53.047Z,37.20
2023-01-20T08:24:22.222Z,34.47
2023-01-20T08:26:51.822Z,38.57
2023-01-20T08:29:19.516Z,34.33
2023-01-20T08:31:47.516Z,39.83
2023-01-20T08:34:16.193Z,34.50
2023-01-20T08:36:43.887Z,38.67
2023-01-20T08:39:19.048Z,35.77
2023-01-20T08:41:49.412Z,33.67
2023-01-20T08:44:18.312Z,35.57
2023-01-20T08:46:46.472Z,33.47
2023-01-20T08:49:16.089Z,34.17
2023-01-20T08:51:45.089Z,35.47
2023-01-20T08:54:14.699Z,37.00
2023-01-20T08:56:42.511Z,36.73
2023-01-20T08:59:11.830Z,35.13
2023-01-20T09:01:39.647Z,31.67
2023-01-20T09:04:07.975Z,33.80
2023-01-20T09:06:39.539Z,31.97
2023-01-20T09:09:07.404Z,32.53
2023-01-20T09:11:35.255Z,33.80
2023-01-20T09:14:03.165Z,32.47
2023-01-20T09:16:32.205Z,32.77
2023-01-20T09:18:59.911Z,31.30
2023-01-20T09:21:27.715Z,30.27
2023-01-20T09:23:55.539Z,34.20
2023-01-20T09:26:35.368Z,31.50
2023-01-20T09:29:09.559Z,29.10
2023-01-20T09:31:40.653Z,30.20
2023-01-20T09:34:08.536Z,30.80
2023-01-20T09:36:36.390Z,30.63
2023-01-20T09:39:21.744Z,30.80
2023-01-20T09:42:08.175Z,32.80
2023-01-20T09:44:49.537Z,29.10
2023-01-20T09:47:30.806Z,30.60
2023-01-20T09:50:39.899Z,30.77
2023-01-20T09:53:15.535Z,27.17
2023-01-20T09:55:48.394Z,27.73
2023-01-20T09:58:26.005Z,27.47
2023-01-20T10:01:01.018Z,25.60
2023-01-20T10:03:37.197Z,27.60
2023-01-20T10:06:10.837Z,26.43
2023-01-20T10:08:55.923Z,26.23
2023-01-20T10:11:37.074Z,30.10
2023-01-20T10:14:10.855Z,30.83
2023-01-20T10:16:45.336Z,25.33
2023-01-20T10:19:27.264Z,22.70
2023-01-20T10:22:06.204Z,26.70
2023-01-20T10:24:38.998Z,24.80
2023-01-20T10:27:06.734Z,27.90
2023-01-20T10:29:37.421Z,29.77
2023-01-20T10:32:11.270Z,28.73
2023-01-20T10:34:46.098Z,27.40
2023-01-20T10:37:16.190Z,25.10
2023-01-20T10:39:48.881Z,26.20
2023-01-20T10:42:19.018Z,27.57
2023-01-20T10:44:48.763Z,29.97
2023-01-20T10:47:22.200Z,27.03
2023-01-20T10:50:21.658Z,27.27
2023-01-20T10:53:09.376Z,24.13
2023-01-20T10:55:51.573Z,23.27
2023-01-20T10:58:23.749Z,22.13
2023-01-20T11:00:52.592Z,22.17
2023-01-20T11:03:22.426Z,20.43
2023-01-20T11:05:53.517Z,21.27
2023-01-20T11:08:23.834Z,20.70
2023-01-20T11:10:55.277Z,18.13
2023-01-20T11:13:23.158Z,18.27
2023-01-20T11:15:54.862Z,12.30
2023-01-20T11:18:28.053Z,11.77
2023-01-20T11:21:00.965Z,16.67
2023-01-20T11:23:37.534Z,17.43
2023-01-20T11:26:10.095Z,13.63
2023-01-20T11:28:51.921Z,15.67
2023-01-20T11:31:20.634Z,12.90
2023-01-20T11:33:59.580Z,14.50
2023-01-20T11:36:29.360Z,16.13
2023-01-20T11:38:58.400Z,14.07
2023-01-20T11:41:27.829Z,15.83
2023-01-20T11:43:57.057Z,15.40
2023-01-20T11:46:28.418Z,20.00
2023-01-20T11:49:18.216Z,19.43
2023-01-20T11:51:50.383Z,15.07
2023-01-20T11:54:20.697Z,13.93
2023-01-20T11:56:52.341Z,16.17
2023-01-20T11:59:24.201Z,14.53
2023-01-20T12:01:57.381Z,18.33
2023-01-20T12:04:42.383Z,13.43
2023-01-20T12:07:15.122Z,16.90
2023-01-20T12:09:47.927Z,11.20
2023-01-20T12:12:25.646Z,12.83
2023-01-20T12:14:59.299Z,11.77
2023-01-20T12:17:39.178Z,11.97
2023-01-20T12:20:13.099Z,12.83
2023-01-20T12:22:49.227Z,13.33
2023-01-20T12:25:21.595Z,13.47
2023-01-20T12:27:52.425Z,16.80
2023-01-20T12:30:38.782Z,15.60
2023-01-20T12:33:15.198Z,17.83
2023-01-20T12:35:49.203Z,17.33
2023-01-20T12:38:20.380Z,17.43
2023-01-20T12:40:50.280Z,16.27
2023-01-20T12:43:34.635Z,15.53
2023-01-20T12:46:26.290Z,16.70
2023-01-20T12:49:08.676Z,14.30
2023-01-20T12:51:45.860Z,14.63
2023-01-20T12:54:47.740Z,15.37
2023-01-20T12:57:36.841Z,13.27
2023-01-20T13:00:24.726Z,18.00
2023-01-20T13:03:36.724Z,17.13
2023-01-20T13:06:24.030Z,15.00
2023-01-20T13:09:02.049Z,16.30
2023-01-20T13:11:44.648Z,16.70
2023-01-20T13:14:16.436Z,18.00
2023-01-20T13:16:50.415Z,19.10
2023-01-20T13:19:25.200Z,20.03
2023-01-20T13:22:06.774Z,22.93
2023-01-20T13:24:36.138Z,18.63
2023-01-20T13:27:05.434Z,17.70
2023-01-20T13:29:44.899Z,16.97
2023-01-20T13:32:33.833Z,17.57
2023-01-20T13:35:03.373Z,16.90
2023-01-20T13:37:35.228Z,20.20
2023-01-20T13:40:03.345Z,20.07
2023-01-20T13:42:53.441Z,15.87
2023-01-20T13:45:27.458Z,17.60
2023-01-20T13:48:01.137Z,25.93
2023-01-20T13:50:31.870Z,17.53
2023-01-20T13:53:08.182Z,17.33
2023-01-20T13:55:53.780Z,17.27
2023-01-20T13:58:24.526Z,14.10
2023-01-20T14:00:54.135Z,15.43
2023-01-20T14:03:24.237Z,14.93
2023-01-20T14:05:54.070Z,15.60
2023-01-20T14:08:23.076Z,13.73
2023-01-20T14:10:51.132Z,14.87
2023-01-20T14:13:25.179Z,16.57
2023-01-20T14:15:54.895Z,17.13
2023-01-20T14:18:26.353Z,16.37
2023-01-20T14:21:01.056Z,13.70
2023-01-20T14:23:38.447Z,15.33
2023-01-20T14:26:10.206Z,13.87
2023-01-20T14:28:46.128Z,11.90
2023-01-20T14:31:22.956Z,11.37
2023-01-20T14:33:57.549Z,12.60
2023-01-20T14:36:27.563Z,10.97
2023-01-20T14:38:58.716Z,12.57
2023-01-20T14:41:29.702Z,15.93
2023-01-20T14:43:58.916Z,12.73
2023-01-20T14:46:28.109Z,14.70
2023-01-20T14:48:56.945Z,15.50
2023-01-20T14:51:25.121Z,9.97
2023-01-20T14:54:25.995Z,13.17
2023-01-20T14:56:53.840Z,11.83
2023-01-20T14:59:23.634Z,13.73
2023-01-20T15:01:56.544Z,12.90
2023-01-20T15:04:24.375Z,12.10
2023-01-20T15:06:54.143Z,13.17
2023-01-20T15:09:33.453Z,10.17
2023-01-20T15:12:33.768Z,10.97
2023-01-20T15:15:13.078Z,13.47
2023-01-20T15:17:58.461Z,12.40
2023-01-20T15:20:31.716Z,15.27
2023-01-20T15:22:59.911Z,12.53
2023-01-20T15:25:29.440Z,16.10
2023-01-20T15:27:58.196Z,15.83
2023-01-20T15:30:29.825Z,15.67
2023-01-20T15:32:57.841Z,14.63
2023-01-20T15:35:26.887Z,17.83
2023-01-20T15:37:55.564Z,19.50
2023-01-20T15:40:25.085Z,20.00
2023-01-20T15:42:54.176Z,18.73
2023-01-20T15:45:21.851Z,19.93
2023-01-20T15:47:51.004Z,18.47
2023-01-20T15:50:21.077Z,18.00
2023-01-20T15:52:49.268Z,20.80
2023-01-20T15:55:18.970Z,21.10
2023-01-20T15:57:50.630Z,19.03
2023-01-20T16:00:20.586Z,15.67
2023-01-20T16:02:48.312Z,17.90
2023-01-20T16:05:17.925Z,15.77
2023-01-20T16:07:47.760Z,16.30
2023-01-20T16:10:18.262Z,15.97
2023-01-20T16:12:46.762Z,15.23
2023-01-20T16:15:16.254Z,17.50
2023-01-20T16:17:44.264Z,17.30
2023-01-20T16:20:20.698Z,16.53
2023-01-20T16:22:48.614Z,16.20
2023-01-20T16:25:16.564Z,17.93
2023-01-20T16:27:44.310Z,19.33
2023-01-20T16:30:16.078Z,20.27
2023-01-20T16:32:46.186Z,25.97
2023-01-20T16:35:14.388Z,20.83
2023-01-20T16:37:44.147Z,19.80
2023-01-20T16:40:15.084Z,19.33
2023-01-20T16:42:43.726Z,20.67
2023-01-20T16:45:23.058Z,22.53
2023-01-20T16:47:51.219Z,25.63
2023-01-20T16:50:19.371Z,23.07
2023-01-20T16:52:48.795Z,25.00
2023-01-20T16:55:16.519Z,27.43
2023-01-20T16:57:44.572Z,26.80
2023-01-20T17:00:13.100Z,25.30
2023-01-20T17:02:40.782Z,25.87
2023-01-20T17:05:09.600Z,24.27
2023-01-20T17:07:37.227Z,28.03
2023-01-20T17:10:07.196Z,24.90
2023-01-20T17:12:35.226Z,23.00
2023-01-20T17:15:03.019Z,25.10
2023-01-20T17:17:30.647Z,31.20
2023-01-20T17:19:58.282Z,28.70
2023-01-20T17:22:26.044Z,29.40
2023-01-20T17:24:53.807Z,23.90
2023-01-20T17:27:22.845Z,30.10
2023-01-20T17:29:50.546Z,26.40
2023-01-20T17:32:18.211Z,24.53
2023-01-20T17:34:45.911Z,30.13
2023-01-20T17:37:13.600Z,27.60
2023-01-20T17:39:42.564Z,27.30
2023-01-20T17:42:10.232Z,28.17
2023-01-20T17:44:39.403Z,32.60
2023-01-20T17:47:07.068Z,27.87
2023-01-20T17:49:34.759Z,27.80
2023-01-20T17:52:02.510Z,28.60
2023-01-20T17:54:30.407Z,28.10
2023-01-20T17:56:58.378Z,27.57
2023-01-20T17:59:26.827Z,28.70
2023-01-20T18:01:56.867Z,30.20
2023-01-20T18:04:24.498Z,29.03
2023-01-20T18:06:52.188Z,33.40
2023-01-20T18:09:19.989Z,29.80
2023-01-20T18:11:47.784Z,27.60
2023-01-20T18:14:15.426Z,25.50
2023-01-20T18:16:43.368Z,37.90
2023-01-20T18:19:13.883Z,33.57
2023-01-20T18:21:43.481Z,43.47
2023-01-20T18:24:12.559Z,26.90
2023-01-20T18:26:42.609Z,28.53
2023-01-20T18:29:14.353Z,25.70
2023-01-20T18:31:42.706Z,28.70
2023-01-20T18:34:15.705Z,29.73
2023-01-20T18:36:46.157Z,27.27
2023-01-20T18:39:17.040Z,28.13
2023-01-20T18:41:45.056Z,32.77
2023-01-20T18:44:12.835Z,28.67
2023-01-20T18:46:41.039Z,29.03
2023-01-20T18:49:09.905Z,30.33
2023-01-20T18:51:39.184Z,32.07
2023-01-20T18:54:10.362Z,29.87
2023-01-20T18:56:38.436Z,31.43
2023-01-20T18:59:07.389Z,33.23
2023-01-20T19:01:39.484Z,68.83
2023-01-20T19:04:09.136Z,44.17
2023-01-20T19:06:39.706Z,35.63
2023-01-20T19:09:08.397Z,41.63
2023-01-20T19:11:39.522Z,38.80
2023-01-20T19:14:08.466Z,34.80
2023-01-20T19:16:39.274Z,34.37
2023-01-20T19:19:08.589Z,30.70
2023-01-20T19:21:37.465Z,30.30
2023-01-20T19:24:08.062Z,37.73
2023-01-20T19:26:37.590Z,37.00
2023-01-20T19:29:07.377Z,35.07
2023-01-20T19:31:38.457Z,32.00
2023-01-20T19:34:06.823Z,39.83
2023-01-20T19:36:35.131Z,34.20
2023-01-20T19:39:03.180Z,32.77
2023-01-20T19:41:34.635Z,35.07
2023-01-20T19:44:04.551Z,34.43
2023-01-20T19:46:33.975Z,58.73
2023-01-20T19:49:03.134Z,65.93
2023-01-20T19:51:31.882Z,38.60
2023-01-20T19:54:01.666Z,35.03
2023-01-20T19:56:31.608Z,34.20
2023-01-20T19:59:01.807Z,34.93
2023-01-20T20:01:31.852Z,39.40
2023-01-20T20:04:04.580Z,36.63
2023-01-20T20:06:34.450Z,36.70
2023-01-20T20:09:03.723Z,35.27
2023-01-20T20:11:32.685Z,38.80
2023-01-20T20:14:04.788Z,39.87
2023-01-20T20:16:35.491Z,41.30
2023-01-20T20:19:03.689Z,34.33
2023-01-20T20:21:31.581Z,38.37
2023-01-20T20:24:01.461Z,46.90
2023-01-20T20:26:31.293Z,38.23
2023-01-20T20:29:01.994Z,37.23
2023-01-20T20:31:30.366Z,37.67
2023-01-20T20:33:59.338Z,35.87
2023-01-20T20:36:28.539Z,41.30
2023-01-20T20:38:58.368Z,40.57
2023-01-20T20:41:29.012Z,45.47
2023-01-20T20:43:57.635Z,43.17
2023-01-20T20:46:27.455Z,60.33
2023-01-20T20:48:56.006Z,55.20
2023-01-20T20:51:24.464Z,55.83
2023-01-20T20:53:55.096Z,45.97
2023-01-20T20:56:23.279Z,45.40
2023-01-20T20:59:00.805Z,47.50
2023-01-20T21:01:32.672Z,47.10
2023-01-20T21:04:00.945Z,44.37
2023-01-20T21:06:29.215Z,46.00
2023-01-20T21:08:58.523Z,47.20
2023-01-20T21:11:26.792Z,46.83
2023-01-20T21:13:57.708Z,45.40
2023-01-20T21:16:27.544Z,42.13
2023-01-20T21:18:57.537Z,41.37
2023-01-20T21:21:26.107Z,45.37
2023-01-20T21:23:55.514Z,45.73
2023-01-20T21:26:24.703Z,44.73
2023-01-20T21:28:53.123Z,43.60
2023-01-20T21:31:23.439Z,46.30
2023-01-20T21:33:54.549Z,39.73
2023-01-20T21:36:24.169Z,40.30
2023-01-20T21:38:52.847Z,45.23
2023-01-20T21:41:21.323Z,42.10
2023-01-20T21:44:07.349Z,41.30
2023-01-20T21:46:38.969Z,44.13
2023-01-20T21:49:24.927Z,43.57
2023-01-20T21:52:12.417Z,44.37
2023-01-20T21:54:41.361Z,44.73
2023-01-20T21:57:10.809Z,45.30
2023-01-20T21:59:39.404Z,42.77
2023-01-20T22:02:09.272Z,42.93
2023-01-20T22:04:37.078Z,46.77
2023-01-20T22:07:06.776Z,44.47
2023-01-20T22:09:34.690Z,45.23
2023-01-20T22:12:03.716Z,44.67
2023-01-20T22:14:32.489Z,40.00
2023-01-20T22:17:00.318Z,41.57
2023-01-20T22:19:28.666Z,41.87
2023-01-20T22:21:57.806Z,39.10
2023-01-20T22:24:27.375Z,44.30
2023-01-20T22:26:57.012Z,38.70
2023-01-20T22:29:27.632Z,43.60
2023-01-20T22:31:59.444Z,40.93
2023-01-20T22:34:27.514Z,43.53
2023-01-20T22:36:56.252Z,41.63
2023-01-20T22:39:24.705Z,41.63
2023-01-20T22:41:54.105Z,43.97
2023-01-20T22:44:21.836Z,43.23
2023-01-20T22:46:49.584Z,43.63
2023-01-20T22:49:17.602Z,42.00
2023-01-20T22:51:45.530Z,39.73
2023-01-20T22:54:13.440Z,39.37
2023-01-20T22:56:41.284Z,39.13
2023-01-20T22:59:13.171Z,35.67
2023-01-20T23:01:43.463Z,35.70
2023-01-20T23:04:11.918Z,38.07
2023-01-20T23:06:41.184Z,35.40
2023-01-20T23:09:11.443Z,34.93
2023-01-20T23:11:40.540Z,37.43
2023-01-20T23:14:12.838Z,34.73
2023-01-20T23:16:41.832Z,35.33
2023-01-20T23:19:10.168Z,35.10
2023-01-20T23:21:37.941Z,35.13
2023-01-20T23:24:05.989Z,36.67
2023-01-20T23:26:34.336Z,36.47
2023-01-20T23:29:02.170Z,30.63
2023-01-20T23:31:35.053Z,30.97
2023-01-20T23:34:02.807Z,33.73
2023-01-20T23:36:30.650Z,34.43
2023-01-20T23:38:58.475Z,36.33
2023-01-20T23:41:26.395Z,36.13
2023-01-20T23:43:54.161Z,32.87
2023-01-20T23:46:22.245Z,33.67
2023-01-20T23:48:51.354Z,30.33
2023-01-20T23:51:19.143Z,32.77
2023-01-20T23:53:47.240Z,37.93
2023-01-20T23:56:17.195Z,39.23
2023-01-20T23:58:45.378Z,35.47
